createdAt,value
2022-11-05T13:05:00.193Z,1.2
2022-11-05T13:10:00.204Z,1.2
2022-11-05T13:15:00.259Z,1.7
2022-11-05T13:20:00.164Z,1.4
2022-11-05T13:25:00.207Z,1.3
2022-11-05T13:30:00.370Z,1.4
2022-11-05T13:35:00.168Z,2.1
2022-11-05T13:40:00.227Z,1.6
2022-11-05T13:45:00.220Z,1.6
2022-11-05T13:50:00.216Z,1.9
2022-11-05T13:55:00.194Z,2.4
2022-11-05T14:00:00.210Z,1.8
2022-11-05T14:05:01.593Z,2.3
2022-11-05T14:10:00.195Z,1.5
2022-11-05T14:15:00.189Z,2.3
2022-11-05T14:20:00.196Z,1.8
2022-11-05T14:25:00.228Z,1.7
2022-11-05T14:30:00.232Z,1.8
2022-11-05T14:35:00.189Z,1.6
2022-11-05T14:40:00.205Z,1.6
2022-11-05T14:45:00.205Z,1.9
2022-11-05T14:50:00.274Z,1.5
2022-11-05T14:55:00.188Z,2.0
2022-11-05T15:00:00.237Z,4.3
2022-11-05T15:05:00.258Z,2.9
2022-11-05T15:10:02.342Z,2.1
2022-11-05T15:15:00.217Z,2.0
2022-11-05T15:20:00.220Z,2.0
2022-11-05T15:25:00.199Z,1.7
2022-11-05T15:30:00.198Z,1.7
2022-11-05T15:35:00.214Z,2.0
2022-11-05T15:40:00.204Z,3.5
2022-11-05T15:45:00.228Z,3.7
2022-11-05T15:50:00.221Z,5.8
2022-11-05T15:55:00.179Z,4.9
2022-11-05T16:00:01.529Z,5.3
2022-11-05T16:05:00.174Z,3.8
2022-11-05T16:10:00.208Z,2.8
2022-11-05T16:15:00.200Z,2.2
2022-11-05T16:20:00.318Z,2.4
2022-11-05T16:25:00.185Z,2.1
2022-11-05T16:30:00.233Z,2.8
2022-11-05T16:35:00.188Z,1.8
2022-11-05T16:40:00.332Z,2.4
2022-11-05T16:45:00.221Z,2.0
2022-11-05T16:50:00.182Z,2.3
2022-11-05T16:55:00.236Z,3.3
2022-11-05T17:00:00.187Z,2.1
2022-11-05T17:05:00.215Z,3.1
2022-11-05T17:10:00.200Z,2.4
2022-11-05T17:15:00.228Z,2.3
2022-11-05T17:20:00.193Z,3.9
2022-11-05T17:25:00.196Z,6.2
2022-11-05T17:30:00.208Z,5.3
2022-11-05T17:35:00.159Z,3.5
2022-11-05T17:40:00.263Z,3.5
2022-11-05T17:45:00.172Z,3.0
2022-11-05T17:50:00.212Z,3.8
2022-11-05T17:55:00.213Z,3.8
2022-11-05T18:00:00.230Z,3.1
2022-11-05T18:05:00.165Z,2.9
2022-11-05T18:10:00.218Z,3.5
2022-11-05T18:15:00.203Z,3.6
2022-11-05T18:20:00.213Z,3.8
2022-11-05T18:25:00.163Z,4.5
2022-11-05T18:30:00.210Z,3.5
2022-11-05T18:35:00.180Z,3.4
2022-11-05T18:40:00.219Z,5.1
2022-11-05T18:45:00.165Z,3.8
2022-11-05T18:50:00.201Z,3.6
2022-11-05T18:55:00.188Z,4.5
2022-11-05T19:00:00.205Z,7.7
2022-11-05T19:05:27.356Z,10.1
2022-11-05T19:10:00.168Z,4.1
2022-11-05T19:15:02.865Z,3.8
2022-11-05T19:20:00.199Z,4.6
2022-11-05T19:25:00.184Z,3.7
2022-11-05T19:30:00.215Z,3.7
2022-11-05T19:35:00.191Z,3.4
2022-11-05T19:40:00.189Z,4.1
2022-11-05T19:45:16.635Z,3.0
2022-11-05T19:50:00.212Z,3.9
2022-11-05T19:55:00.211Z,3.6
2022-11-05T20:00:00.190Z,4.1
2022-11-05T20:05:01.396Z,3.4
2022-11-05T20:10:00.179Z,3.9
2022-11-05T20:15:00.191Z,4.4
2022-11-05T20:20:00.227Z,3.7
2022-11-05T20:25:00.211Z,3.8
2022-11-05T20:30:00.177Z,4.2
2022-11-05T20:35:00.206Z,4.8
2022-11-05T20:40:00.164Z,4.2
2022-11-05T20:45:00.192Z,4.6
2022-11-05T20:50:00.171Z,5.0
2022-11-05T20:55:00.215Z,4.6
2022-11-05T21:00:00.239Z,4.9
2022-11-05T21:05:00.193Z,4.1
2022-11-05T21:10:00.156Z,4.4
2022-11-05T21:15:00.238Z,4.2
2022-11-05T21:20:00.237Z,4.3
2022-11-05T21:25:00.198Z,3.6
2022-11-05T21:30:00.199Z,3.5
2022-11-05T21:35:00.186Z,3.8
2022-11-05T21:40:00.169Z,4.4
2022-11-05T21:45:00.815Z,4.1
2022-11-05T21:50:00.152Z,4.0
2022-11-05T21:55:00.192Z,4.2
2022-11-05T22:00:00.332Z,4.1
2022-11-05T22:05:00.271Z,4.2
2022-11-05T22:10:00.197Z,3.7
2022-11-05T22:15:00.245Z,3.7
2022-11-05T22:20:00.213Z,4.2
2022-11-05T22:25:00.233Z,3.5
2022-11-05T22:30:00.169Z,3.6
2022-11-05T22:35:00.189Z,3.6
2022-11-05T22:40:00.205Z,3.1
2022-11-05T22:45:00.179Z,2.8
2022-11-05T22:50:00.264Z,3.2
2022-11-05T22:55:00.169Z,2.9
2022-11-05T23:00:00.271Z,2.6
2022-11-05T23:05:00.205Z,2.6
2022-11-05T23:10:00.242Z,2.6
2022-11-05T23:15:00.170Z,2.8
2022-11-05T23:20:00.216Z,2.4
2022-11-05T23:25:00.214Z,2.8
2022-11-05T23:30:00.196Z,2.1
2022-11-05T23:35:00.207Z,3.0
2022-11-05T23:40:00.187Z,2.3
2022-11-05T23:45:00.194Z,2.5
2022-11-05T23:50:00.224Z,2.3
2022-11-05T23:55:00.394Z,2.2
